createdAt,value
2017-11-25T00:00:17.885Z,33.03
2017-11-25T00:02:45.486Z,34.87
2017-11-25T00:05:13.351Z,37.00
2017-11-25T00:07:39.952Z,37.37
2017-11-25T00:10:06.339Z,37.57
2017-11-25T00:12:32.880Z,34.90
2017-11-25T00:14:59.550Z,38.03
2017-11-25T00:17:26.171Z,37.87
2017-11-25T00:19:53.852Z,35.37
2017-11-25T00:22:20.603Z,35.67
2017-11-25T00:24:47.303Z,39.47
2017-11-25T00:27:14.050Z,32.73
2017-11-25T00:29:40.827Z,32.50
2017-11-25T00:32:08.350Z,32.20
2017-11-25T00:34:34.971Z,35.63
2017-11-25T00:37:01.582Z,34.00
2017-11-25T00:39:28.343Z,35.10
2017-11-25T00:41:55.011Z,29.93
2017-11-25T00:44:21.534Z,38.53
2017-11-25T00:46:48.033Z,37.00
2017-11-25T00:49:14.599Z,35.97
2017-11-25T00:51:44.236Z,41.60
2017-11-25T00:54:10.985Z,36.10
2017-11-25T00:56:38.263Z,39.20
2017-11-25T00:59:04.945Z,39.10
2017-11-25T01:01:31.424Z,35.43
2017-11-25T01:03:57.941Z,35.73
2017-11-25T01:06:24.559Z,39.07
2017-11-25T01:08:51.089Z,35.70
2017-11-25T01:11:17.487Z,34.97
2017-11-25T01:13:43.998Z,39.13
2017-11-25T01:16:10.571Z,34.87
2017-11-25T01:18:37.152Z,32.23
2017-11-25T01:21:04.491Z,36.33
2017-11-25T01:23:31.732Z,35.10
2017-11-25T01:25:58.253Z,34.33
2017-11-25T01:28:24.800Z,33.07
2017-11-25T01:30:51.340Z,32.93
2017-11-25T01:33:18.185Z,33.63
2017-11-25T01:35:44.940Z,33.30
2017-11-25T01:38:11.396Z,34.40
2017-11-25T01:40:37.813Z,32.30
2017-11-25T01:43:04.532Z,31.07
2017-11-25T01:45:31.153Z,36.67
2017-11-25T01:47:57.878Z,35.17
2017-11-25T01:50:24.724Z,35.50
2017-11-25T01:52:52.160Z,35.17
2017-11-25T01:55:18.797Z,39.13
2017-11-25T01:57:45.452Z,36.20
2017-11-25T02:00:12.006Z,34.37
2017-11-25T02:02:38.468Z,34.87
2017-11-25T02:05:04.967Z,37.80
2017-11-25T02:07:31.521Z,37.20
2017-11-25T02:09:57.946Z,37.27
2017-11-25T02:12:24.358Z,34.40
2017-11-25T02:14:51.113Z,36.77
2017-11-25T02:17:17.696Z,38.40
2017-11-25T02:19:45.202Z,31.27
2017-11-25T02:22:11.727Z,35.47
2017-11-25T02:24:38.912Z,35.20
2017-11-25T02:27:07.072Z,37.83
2017-11-25T02:29:33.896Z,35.10
2017-11-25T02:32:00.461Z,33.20
2017-11-25T02:34:27.187Z,32.43
2017-11-25T02:36:53.603Z,35.13
2017-11-25T02:39:20.160Z,32.50
2017-11-25T02:41:46.716Z,31.77
2017-11-25T02:44:13.148Z,30.83
2017-11-25T02:46:39.769Z,31.20
2017-11-25T02:49:06.501Z,33.47
2017-11-25T02:51:34.018Z,32.97
2017-11-25T02:54:00.522Z,34.30
2017-11-25T02:56:27.198Z,34.13
2017-11-25T02:58:53.913Z,30.27
2017-11-25T03:01:20.420Z,30.43
2017-11-25T03:03:47.574Z,34.17
2017-11-25T03:06:14.109Z,31.67
2017-11-25T03:08:40.545Z,32.03
2017-11-25T03:11:06.982Z,32.80
2017-11-25T03:13:34.314Z,34.10
2017-11-25T03:16:01.063Z,32.07
2017-11-25T03:18:27.661Z,33.60
2017-11-25T03:20:54.049Z,31.67
2017-11-25T03:23:21.378Z,31.70
2017-11-25T03:25:48.364Z,32.37
2017-11-25T03:28:14.880Z,32.37
2017-11-25T03:30:41.510Z,36.03
2017-11-25T03:33:08.693Z,35.70
2017-11-25T03:35:35.211Z,33.97
2017-11-25T03:38:01.804Z,34.47
2017-11-25T03:40:28.214Z,33.77
2017-11-25T03:42:54.655Z,31.10
2017-11-25T03:45:21.068Z,34.30
2017-11-25T03:47:47.453Z,32.63
2017-11-25T03:50:13.995Z,32.33
2017-11-25T03:52:40.418Z,32.60
2017-11-25T03:55:06.800Z,34.73
2017-11-25T03:57:33.331Z,28.37
2017-11-25T03:59:59.915Z,32.40
2017-11-25T04:02:26.534Z,33.00
2017-11-25T04:04:52.852Z,32.17
2017-11-25T04:07:19.234Z,32.97
2017-11-25T04:09:45.688Z,35.30
2017-11-25T04:12:12.094Z,34.87
2017-11-25T04:14:38.406Z,32.07
2017-11-25T04:17:05.234Z,32.60
2017-11-25T04:19:31.645Z,32.80
2017-11-25T04:21:57.950Z,34.93
2017-11-25T04:24:24.414Z,33.50
2017-11-25T04:26:50.923Z,32.57
2017-11-25T04:29:18.140Z,31.30
2017-11-25T04:31:46.229Z,26.63
2017-11-25T04:34:12.860Z,30.97
2017-11-25T04:36:39.292Z,29.40
2017-11-25T04:39:05.689Z,28.10
2017-11-25T04:41:32.205Z,30.37
2017-11-25T04:43:58.654Z,30.97
2017-11-25T04:46:25.832Z,30.70
2017-11-25T04:48:58.546Z,30.47
2017-11-25T04:51:24.965Z,30.60
2017-11-25T04:53:51.477Z,35.67
2017-11-25T04:56:18.014Z,31.30
2017-11-25T04:58:44.779Z,31.30
2017-11-25T05:01:12.255Z,31.80
2017-11-25T05:03:39.411Z,30.63
2017-11-25T05:06:07.828Z,32.77
2017-11-25T05:08:35.169Z,32.10
2017-11-25T05:11:03.039Z,29.80
2017-11-25T05:13:29.600Z,29.43
2017-11-25T05:15:56.217Z,32.13
2017-11-25T05:18:22.706Z,30.40
2017-11-25T05:20:49.934Z,25.97
2017-11-25T05:23:16.500Z,33.30
2017-11-25T05:25:42.923Z,29.43
2017-11-25T05:28:09.398Z,30.00
2017-11-25T05:30:37.878Z,28.60
2017-11-25T05:33:04.361Z,27.33
2017-11-25T05:35:31.710Z,30.57
2017-11-25T05:37:58.161Z,29.17
2017-11-25T05:40:24.567Z,26.50
2017-11-25T05:42:51.014Z,25.30
2017-11-25T05:45:17.432Z,29.30
2017-11-25T05:47:43.834Z,29.97
2017-11-25T05:50:10.955Z,29.03
2017-11-25T05:52:37.345Z,29.80
2017-11-25T05:55:03.786Z,27.13
2017-11-25T05:57:30.496Z,27.97
2017-11-25T05:59:57.034Z,26.50
2017-11-25T06:02:23.389Z,27.87
2017-11-25T06:04:49.930Z,25.60
2017-11-25T06:07:16.440Z,25.83
2017-11-25T06:09:43.138Z,22.83
2017-11-25T06:12:09.670Z,23.47
2017-11-25T06:14:36.169Z,22.60
2017-11-25T06:17:02.654Z,23.50
2017-11-25T06:19:29.034Z,20.90
2017-11-25T06:21:55.481Z,21.70
2017-11-25T06:24:22.156Z,19.80
2017-11-25T06:26:48.705Z,21.50
2017-11-25T06:29:15.288Z,21.67
2017-11-25T06:31:41.804Z,22.90
2017-11-25T06:34:08.332Z,21.10
2017-11-25T06:36:34.722Z,22.33
2017-11-25T06:39:01.149Z,24.50
2017-11-25T06:41:27.590Z,25.77
2017-11-25T06:43:54.020Z,24.90
2017-11-25T06:46:21.271Z,24.97
2017-11-25T06:48:47.873Z,27.77
2017-11-25T06:51:14.544Z,23.80
2017-11-25T06:53:40.936Z,27.73
2017-11-25T06:56:08.081Z,26.77
2017-11-25T06:58:36.070Z,27.63
2017-11-25T07:01:02.936Z,27.87
2017-11-25T07:03:29.352Z,28.97
2017-11-25T07:05:55.814Z,31.43
2017-11-25T07:08:22.198Z,27.20
2017-11-25T07:10:48.651Z,26.00
2017-11-25T07:13:15.460Z,29.20
2017-11-25T07:15:42.520Z,31.30
2017-11-25T07:18:09.113Z,28.20
2017-11-25T07:20:36.237Z,29.50
2017-11-25T07:23:02.669Z,31.43
2017-11-25T07:25:29.235Z,29.50
2017-11-25T07:27:56.476Z,29.07
2017-11-25T07:30:22.958Z,30.77
2017-11-25T07:32:49.426Z,27.47
2017-11-25T07:35:15.921Z,29.97
2017-11-25T07:37:43.086Z,29.03
2017-11-25T07:40:09.530Z,32.30
2017-11-25T07:42:38.390Z,31.70
2017-11-25T07:45:04.877Z,32.43
2017-11-25T07:47:31.409Z,30.70
2017-11-25T07:49:58.043Z,28.63
2017-11-25T07:52:24.402Z,28.50
2017-11-25T07:54:50.917Z,30.50
2017-11-25T07:57:17.358Z,29.50
2017-11-25T07:59:43.816Z,28.90
2017-11-25T08:02:10.162Z,29.23
2017-11-25T08:04:36.721Z,26.47
2017-11-25T08:07:03.935Z,27.23
2017-11-25T08:09:31.049Z,27.67
2017-11-25T08:11:57.937Z,26.47
2017-11-25T08:14:26.049Z,25.40
2017-11-25T08:16:52.684Z,26.33
2017-11-25T08:19:19.158Z,28.20
2017-11-25T08:21:47.319Z,24.80
2017-11-25T08:24:14.132Z,27.87
2017-11-25T08:26:40.895Z,28.63
2017-11-25T08:29:13.811Z,25.33
2017-11-25T08:31:40.357Z,29.03
2017-11-25T08:34:07.567Z,27.67
2017-11-25T08:36:35.313Z,25.80
2017-11-25T08:39:02.376Z,26.07
2017-11-25T08:41:29.656Z,24.03
2017-11-25T08:43:56.659Z,25.67
2017-11-25T08:46:23.438Z,23.33
2017-11-25T08:48:50.648Z,26.57
2017-11-25T08:51:18.572Z,26.67
2017-11-25T08:53:46.319Z,25.30
2017-11-25T08:56:13.678Z,26.23
2017-11-25T08:58:41.320Z,23.80
2017-11-25T09:01:08.090Z,25.83
2017-11-25T09:03:36.006Z,26.93
2017-11-25T09:06:03.015Z,24.97
2017-11-25T09:08:29.727Z,25.10
2017-11-25T09:10:56.241Z,25.80
2017-11-25T09:13:23.586Z,24.90
2017-11-25T09:15:50.057Z,25.90
2017-11-25T09:18:16.553Z,24.20
2017-11-25T09:20:44.521Z,25.50
2017-11-25T09:23:11.328Z,25.57
2017-11-25T09:25:37.804Z,23.60
2017-11-25T09:28:04.627Z,23.87
2017-11-25T09:30:31.141Z,23.43
2017-11-25T09:32:57.706Z,25.23
2017-11-25T09:35:24.706Z,24.53
2017-11-25T09:37:51.981Z,19.90
2017-11-25T09:40:18.532Z,22.73
2017-11-25T09:42:45.147Z,23.63
2017-11-25T09:45:11.713Z,25.20
2017-11-25T09:47:39.096Z,24.10
2017-11-25T09:50:05.608Z,22.40
2017-11-25T09:52:32.118Z,23.60
2017-11-25T09:54:58.607Z,23.87
2017-11-25T09:57:25.080Z,23.90
2017-11-25T09:59:51.465Z,24.03
2017-11-25T10:02:18.833Z,20.53
2017-11-25T10:04:46.225Z,22.87
2017-11-25T10:07:12.679Z,23.73
2017-11-25T10:09:39.255Z,24.70
2017-11-25T10:12:05.786Z,26.33
2017-11-25T10:14:32.397Z,27.27
2017-11-25T10:16:59.647Z,27.87
2017-11-25T10:19:26.297Z,25.87
2017-11-25T10:21:52.683Z,25.93
2017-11-25T10:24:19.962Z,27.23
2017-11-25T10:26:46.896Z,23.73
2017-11-25T10:29:13.565Z,24.70
2017-11-25T10:31:40.090Z,26.80
2017-11-25T10:34:06.497Z,24.23
2017-11-25T10:36:33.133Z,23.67
2017-11-25T10:38:59.698Z,24.20
2017-11-25T10:41:26.969Z,25.73
2017-11-25T10:43:53.801Z,23.30
2017-11-25T10:46:21.061Z,23.40
2017-11-25T10:48:47.446Z,21.60
2017-11-25T10:51:14.655Z,21.83
2017-11-25T10:53:41.062Z,24.57
2017-11-25T10:56:08.416Z,21.63
2017-11-25T10:58:34.921Z,23.27
2017-11-25T11:01:01.654Z,23.00
2017-11-25T11:03:28.095Z,22.20
2017-11-25T11:05:55.143Z,20.20
2017-11-25T11:08:21.710Z,21.60
2017-11-25T11:10:48.218Z,20.37
2017-11-25T11:13:15.201Z,22.20
2017-11-25T11:15:43.513Z,20.40
2017-11-25T11:18:10.350Z,20.70
2017-11-25T11:20:37.597Z,21.00
2017-11-25T11:23:04.628Z,21.37
2017-11-25T11:25:31.857Z,18.77
2017-11-25T11:27:58.793Z,20.83
2017-11-25T11:30:25.666Z,20.10
2017-11-25T11:32:53.586Z,21.20
2017-11-25T11:35:20.783Z,18.23
2017-11-25T11:37:48.406Z,17.70
2017-11-25T11:40:15.226Z,21.80
2017-11-25T11:42:42.287Z,20.47
2017-11-25T11:45:09.020Z,18.77
2017-11-25T11:47:35.623Z,18.40
2017-11-25T11:50:02.203Z,17.17
2017-11-25T11:52:28.870Z,17.47
2017-11-25T11:54:56.925Z,16.97
2017-11-25T11:57:23.714Z,19.17
2017-11-25T11:59:51.126Z,18.97
2017-11-25T12:02:20.887Z,20.20
2017-11-25T12:04:48.619Z,19.83
2017-11-25T12:07:15.762Z,18.50
2017-11-25T12:09:42.191Z,18.50
2017-11-25T12:12:09.106Z,19.60
2017-11-25T12:14:36.362Z,19.87
2017-11-25T12:17:02.912Z,19.37
2017-11-25T12:19:30.942Z,21.00
2017-11-25T12:21:58.495Z,19.47
2017-11-25T12:24:25.058Z,20.73
2017-11-25T12:26:51.757Z,21.27
2017-11-25T12:29:18.428Z,21.93
2017-11-25T12:31:45.932Z,21.00
2017-11-25T12:34:12.463Z,21.70
2017-11-25T12:36:39.204Z,20.80
2017-11-25T12:39:06.081Z,19.07
2017-11-25T12:41:33.453Z,19.00
2017-11-25T12:44:00.089Z,18.27
2017-11-25T12:46:27.346Z,19.60
2017-11-25T12:48:55.498Z,17.93
2017-11-25T12:51:22.233Z,18.37
2017-11-25T12:53:48.962Z,16.20
2017-11-25T12:56:17.068Z,17.17
2017-11-25T12:58:44.794Z,17.23
2017-11-25T13:01:11.996Z,18.07
2017-11-25T13:03:38.646Z,16.63
2017-11-25T13:06:05.334Z,17.97
2017-11-25T13:08:33.032Z,15.83
2017-11-25T13:10:59.590Z,18.23
2017-11-25T13:13:26.045Z,17.53
2017-11-25T13:15:52.652Z,17.63
2017-11-25T13:18:19.935Z,19.33
2017-11-25T13:20:47.395Z,21.17
2017-11-25T13:23:14.743Z,20.50
2017-11-25T13:25:41.533Z,20.77
2017-11-25T13:28:08.452Z,21.60
2017-11-25T13:30:36.524Z,19.60
2017-11-25T13:33:03.724Z,21.20
2017-11-25T13:35:33.840Z,19.50
2017-11-25T13:38:00.734Z,19.20
2017-11-25T13:40:27.246Z,20.97
2017-11-25T13:42:53.686Z,21.27
2017-11-25T13:45:20.079Z,21.87
2017-11-25T13:47:46.521Z,20.07
2017-11-25T13:50:13.348Z,20.70
2017-11-25T13:52:40.316Z,16.77
2017-11-25T13:55:07.870Z,20.00
2017-11-25T13:57:34.540Z,19.50
2017-11-25T14:00:01.067Z,19.43
2017-11-25T14:02:27.706Z,18.40
2017-11-25T14:04:55.269Z,21.50
2017-11-25T14:07:22.815Z,22.50
2017-11-25T14:09:49.299Z,20.60
2017-11-25T14:12:15.774Z,19.53
2017-11-25T14:14:42.309Z,20.20
2017-11-25T14:17:08.832Z,21.53
2017-11-25T14:19:36.415Z,22.53
2017-11-25T14:22:02.845Z,21.40
2017-11-25T14:24:29.225Z,22.07
2017-11-25T14:26:55.801Z,20.97
2017-11-25T14:29:22.701Z,22.60
2017-11-25T14:31:49.251Z,23.00
2017-11-25T14:34:16.275Z,23.00
2017-11-25T14:36:42.764Z,26.13
2017-11-25T14:39:10.496Z,24.07
2017-11-25T14:41:38.292Z,22.63
2017-11-25T14:44:05.213Z,24.03
2017-11-25T14:46:32.211Z,23.57
2017-11-25T14:48:58.986Z,23.03
2017-11-25T14:51:25.414Z,22.67
2017-11-25T14:53:52.784Z,23.57
2017-11-25T14:56:20.317Z,24.80
2017-11-25T14:58:46.807Z,23.27
2017-11-25T15:01:13.751Z,23.83
2017-11-25T15:03:40.343Z,23.30
2017-11-25T15:06:06.791Z,20.23
2017-11-25T15:08:34.528Z,20.73
2017-11-25T15:11:01.026Z,20.20
2017-11-25T15:13:27.749Z,21.50
2017-11-25T15:15:54.432Z,20.03
2017-11-25T15:18:20.979Z,20.77
2017-11-25T15:20:47.975Z,20.60
2017-11-25T15:23:16.336Z,21.77
2017-11-25T15:25:42.821Z,23.00
2017-11-25T15:28:09.430Z,21.40
2017-11-25T15:30:36.053Z,20.77
2017-11-25T15:33:02.784Z,21.10
2017-11-25T15:35:29.302Z,20.80
2017-11-25T15:37:56.873Z,17.27
2017-11-25T15:40:24.031Z,17.30
2017-11-25T15:42:50.541Z,16.57
2017-11-25T15:45:17.403Z,16.53
2017-11-25T15:47:44.270Z,16.50
2017-11-25T15:50:10.843Z,18.73
2017-11-25T15:52:38.818Z,15.77
2017-11-25T15:55:05.552Z,15.97
2017-11-25T15:57:31.977Z,16.00
2017-11-25T15:59:58.687Z,16.93
2017-11-25T16:02:27.266Z,14.87
2017-11-25T16:04:54.522Z,15.00
2017-11-25T16:07:22.101Z,15.07
2017-11-25T16:09:49.310Z,15.43
2017-11-25T16:12:23.137Z,14.97
2017-11-25T16:14:56.546Z,14.57
2017-11-25T16:17:23.129Z,15.37
2017-11-25T16:19:49.905Z,14.53
2017-11-25T16:22:16.419Z,14.90
2017-11-25T16:24:43.111Z,14.53
2017-11-25T16:27:10.460Z,13.30
2017-11-25T16:29:36.928Z,16.13
2017-11-25T16:32:03.526Z,15.03
2017-11-25T16:34:30.366Z,14.70
2017-11-25T16:36:56.897Z,13.47
2017-11-25T16:39:23.400Z,14.30
2017-11-25T16:41:49.918Z,15.50
2017-11-25T16:44:16.473Z,15.33
2017-11-25T16:46:42.935Z,14.23
2017-11-25T16:49:09.382Z,16.30
2017-11-25T16:51:35.852Z,15.07
2017-11-25T16:54:02.281Z,16.10
2017-11-25T16:56:28.675Z,16.13
2017-11-25T16:58:55.774Z,15.43
2017-11-25T17:01:22.251Z,15.70
2017-11-25T17:03:48.874Z,16.70
2017-11-25T17:06:15.719Z,17.10
2017-11-25T17:08:42.215Z,19.90
2017-11-25T17:11:08.589Z,16.00
2017-11-25T17:13:35.945Z,18.60
2017-11-25T17:16:03.194Z,15.70
2017-11-25T17:18:29.588Z,17.80
2017-11-25T17:20:56.259Z,19.97
2017-11-25T17:23:22.754Z,19.33
2017-11-25T17:25:49.178Z,19.80
2017-11-25T17:28:15.620Z,19.67
2017-11-25T17:30:42.096Z,22.13
2017-11-25T17:33:08.730Z,19.63
2017-11-25T17:35:35.253Z,23.20
2017-11-25T17:38:01.753Z,21.60
2017-11-25T17:40:28.167Z,22.20
2017-11-25T17:42:54.641Z,24.13
2017-11-25T17:45:21.590Z,26.27
2017-11-25T17:47:48.360Z,25.50
2017-11-25T17:50:15.129Z,22.80
2017-11-25T17:52:41.656Z,25.93
2017-11-25T17:55:08.914Z,23.07
2017-11-25T17:57:35.781Z,24.60
2017-11-25T18:00:02.236Z,25.27
2017-11-25T18:02:29.559Z,26.33
2017-11-25T18:04:57.664Z,28.20
2017-11-25T18:07:25.139Z,24.97
2017-11-25T18:09:51.583Z,23.67
2017-11-25T18:12:18.312Z,25.47
2017-11-25T18:14:45.628Z,23.10
2017-11-25T18:17:12.183Z,24.13
2017-11-25T18:19:38.782Z,22.90
2017-11-25T18:22:05.465Z,24.70
2017-11-25T18:24:32.016Z,25.67
2017-11-25T18:26:59.330Z,23.10
2017-11-25T18:29:25.975Z,25.03
2017-11-25T18:31:52.412Z,26.57
2017-11-25T18:34:19.209Z,24.10
2017-11-25T18:36:46.087Z,28.40
2017-11-25T18:39:13.510Z,28.40
2017-11-25T18:41:40.118Z,28.00
2017-11-25T18:46:40.631Z,27.20
2017-11-25T18:49:07.541Z,29.00
2017-11-25T18:51:34.994Z,27.67
2017-11-25T18:54:01.700Z,27.77
2017-11-25T18:56:28.345Z,30.57
2017-11-25T18:58:54.838Z,30.20
2017-11-25T19:01:21.405Z,27.47
2017-11-25T19:03:49.661Z,32.17
2017-11-25T19:06:17.721Z,29.93
2017-11-25T19:08:46.734Z,36.13
2017-11-25T19:11:13.435Z,33.10
2017-11-25T19:13:40.823Z,31.23
2017-11-25T19:16:08.845Z,33.10
2017-11-25T19:18:35.275Z,31.53
2017-11-25T19:21:02.517Z,31.07
2017-11-25T19:23:29.401Z,31.40
2017-11-25T19:25:55.974Z,34.60
2017-11-25T19:28:23.973Z,31.37
2017-11-25T19:30:50.914Z,29.27
2017-11-25T19:33:17.786Z,35.23
2017-11-25T19:35:45.113Z,31.60
2017-11-25T19:38:12.054Z,33.10
2017-11-25T19:40:38.943Z,32.93
2017-11-25T19:43:05.839Z,29.67
2017-11-25T19:45:32.645Z,32.77
2017-11-25T19:48:00.553Z,28.13
2017-11-25T19:50:27.709Z,31.77
2017-11-25T19:52:55.342Z,31.57
2017-11-25T19:55:23.822Z,30.20
2017-11-25T19:57:51.497Z,27.77
2017-11-25T20:00:18.067Z,33.10
2017-11-25T20:02:45.458Z,30.77
2017-11-25T20:05:11.950Z,28.70
2017-11-25T20:07:38.464Z,29.87
2017-11-25T20:10:04.970Z,28.73
2017-11-25T20:12:31.440Z,31.00
2017-11-25T20:14:58.448Z,31.10
2017-11-25T20:17:24.866Z,27.90
2017-11-25T20:19:51.471Z,32.20
2017-11-25T20:22:18.109Z,23.63
2017-11-25T20:24:44.969Z,29.07
2017-11-25T20:27:11.595Z,25.97
2017-11-25T20:29:38.487Z,26.47
2017-11-25T20:32:05.542Z,26.20
2017-11-25T20:34:32.029Z,29.00
2017-11-25T20:36:58.657Z,27.23
2017-11-25T20:39:25.370Z,29.17
2017-11-25T20:41:51.800Z,27.87
2017-11-25T20:44:18.365Z,27.90
2017-11-25T20:46:44.905Z,28.20
2017-11-25T20:49:11.739Z,24.67
2017-11-25T20:51:38.506Z,25.57
2017-11-25T20:54:05.808Z,23.90
2017-11-25T20:56:32.955Z,22.93
2017-11-25T20:58:59.976Z,24.40
2017-11-25T21:01:26.592Z,20.03
2017-11-25T21:03:53.033Z,18.77
2017-11-25T21:06:19.775Z,19.83
2017-11-25T21:08:47.211Z,21.60
2017-11-25T21:11:13.667Z,19.83
2017-11-25T21:13:40.959Z,19.20
2017-11-25T21:16:07.464Z,21.30
2017-11-25T21:18:34.049Z,15.87
2017-11-25T21:21:00.862Z,17.53
2017-11-25T21:23:27.792Z,18.67
2017-11-25T21:25:54.695Z,16.17
2017-11-25T21:28:21.216Z,18.13
2017-11-25T21:30:47.748Z,18.70
2017-11-25T21:33:14.493Z,14.57
2017-11-25T21:35:42.666Z,15.50
2017-11-25T21:38:09.456Z,18.03
2017-11-25T21:40:36.433Z,16.40
2017-11-25T21:43:02.966Z,15.80
2017-11-25T21:45:30.535Z,17.30
2017-11-25T21:47:57.185Z,14.53
2017-11-25T21:50:23.649Z,15.20
2017-11-25T21:52:50.222Z,10.57
2017-11-25T21:55:16.693Z,10.73
2017-11-25T21:57:43.217Z,14.07
2017-11-25T22:00:09.846Z,13.50
2017-11-25T22:02:36.376Z,12.80
2017-11-25T22:05:02.920Z,18.70
2017-11-25T22:07:29.477Z,12.37
2017-11-25T22:09:55.988Z,10.43
2017-11-25T22:12:22.523Z,16.80
2017-11-25T22:14:48.986Z,18.10
2017-11-25T22:17:15.622Z,16.97
2017-11-25T22:19:42.155Z,15.37
2017-11-25T22:22:08.639Z,18.00
2017-11-25T22:24:35.183Z,17.03
2017-11-25T22:27:01.731Z,18.10
2017-11-25T22:29:29.154Z,16.20
2017-11-25T22:31:55.664Z,17.83
2017-11-25T22:34:22.244Z,17.50
2017-11-25T22:36:48.885Z,18.40
2017-11-25T22:39:15.438Z,18.80
2017-11-25T22:41:41.954Z,17.97
2017-11-25T22:44:10.247Z,18.30
2017-11-25T22:46:36.741Z,22.17
2017-11-25T22:49:03.285Z,19.90
2017-11-25T22:51:29.656Z,17.80
2017-11-25T22:53:56.106Z,18.27
2017-11-25T22:56:24.279Z,19.83
2017-11-25T22:58:50.865Z,18.80
2017-11-25T23:01:17.476Z,23.33
2017-11-25T23:03:44.031Z,16.23
2017-11-25T23:06:10.468Z,18.63
2017-11-25T23:08:36.933Z,18.57
2017-11-25T23:11:03.507Z,19.27
2017-11-25T23:13:29.994Z,20.27
2017-11-25T23:15:57.395Z,15.97
2017-11-25T23:18:23.825Z,15.40
2017-11-25T23:20:50.299Z,18.20
2017-11-25T23:23:16.776Z,15.70
2017-11-25T23:25:43.192Z,9.60
2017-11-25T23:28:09.627Z,14.27
2017-11-25T23:30:36.143Z,15.67
2017-11-25T23:33:02.520Z,16.40
2017-11-25T23:35:28.910Z,18.27
2017-11-25T23:37:55.365Z,17.70
2017-11-25T23:40:22.082Z,15.67
2017-11-25T23:42:48.559Z,16.20
2017-11-25T23:45:15.418Z,15.90
2017-11-25T23:47:42.865Z,16.07
2017-11-25T23:50:09.429Z,17.50
2017-11-25T23:52:35.787Z,18.40
2017-11-25T23:55:02.497Z,17.50
2017-11-25T23:57:28.908Z,17.40
2017-11-25T23:59:55.442Z,19.57
